Racecast

Nathan Koviack

Temperance Bedford (MI) · 8 · SECMI D1MONROE · Compare head to head

Athlete rating 103.8 2020 XC season
Best race 121.9 XC
Races 32
Seasons 4 2018 — 2021

RankedNation #17987·MI #3901·Team #108 ?

Rating scale ?

Cross Country

2020 XC 99.7

Temperance Bedford (MI) · Grade 8

Date Meet Event Result Place Rating Difficulty PR/SR Flags
2020-10-14 Indian Creek OFFICIAL 3200m 16:08 45th · 37th on team 105.2 +0.038 SR CSR RSR
2020-09-24 Indian Creek OFFICIAL 3200m 17:38 46th · 33rd on team 98.2 +0.038
2020-09-19 Indian Creek OFFICIAL 3218m 17:37 42nd · 35th on team 96.7 +0.038 ★CR SR CSR
2020-09-16 Rolling Hills 3218m 17:45.8 41st · 32nd on team 102.6 +0.077 ★CR SR CSR RSR
2020-09-09 Indian Creek OFFICIAL 3200m 17:36 34th · 34th on team 96.1 +0.038 SR CSR RSR

2019 XC 114.4

Temperance Bedford (MI) · Grade 7

Date Meet Event Result Place Rating Difficulty PR/SR Flags
2019-10-12 Munson Park 3200m 14:54.3 71st · 27th on team 113.8 +0.034 CSR
2019-10-09 Indian Creek OFFICIAL 3200m 14:00 37th · 13th on team 121.9 +0.038 ★PR ★CR ★R SR CSR RSR
2019-10-05 Munson Park 3218m 14:59.8 81st · 24th on team 112.7 +0.034 CSR
2019-09-28 Lake Erie Metro Park OFFICIAL 3218m 14:53 110th · 25th on team 113.6 +0.034 CSR
2019-09-24 Hudson Mills Metropark - OFFICIAL 3218m 14:38.5 31st · 11th on team 121.2 +0.062 ★CR R SR CSR RSR
2019-09-21 Maumee Bay State Park 3200m 15:03.2 97th · 15th on team 106.0 -0.033 ★CR CSR
2019-09-14 Ottawa Park Golf Course 3200m 14:11.4 54th · 22nd on team 111.7 -0.037 PR ★CR SR CSR RSR

2018 XC 112.1

Temperance Bedford (MI) · Grade 6

Date Meet Event Result Place Rating Difficulty PR/SR Flags
2018-10-13 Munson Park 3200m 14:27.8 44th · 19th on team 116.4 +0.034 ★CR CSR
2018-10-10 Saline High School 3200m 14:15.4 39th · 8th on team 118.8 +0.016 PR ★CR R SR CSR RSR
2018-10-06 Munson Park 3218m 14:42.6 48th · 17th on team 117.0 +0.034 ★CR R CSR RSR
2018-09-29 Lake Erie Metro Park OFFICIAL 3218m 14:34.3 92nd · 16th on team 116.9 +0.034 ★PR ★CR R SR CSR RSR
2018-09-25 Hudson Mills Metropark - OFFICIAL 3218m 15:40.5 50th · 11th on team 111.2 +0.062 CR CSR
2018-09-15 Ottawa Park Golf Course 3200m 15:23.5 20th · 20th on team 103.5 -0.037 PR CR SR CSR
2018-09-12 Tecumseh HS 3218m 14:43.1 46th · 11th on team 115.0 +0.036 PR ★CR R SR CSR RSR
2018-08-30 Eastwood HS 3200m 15:44 109th · 15th on team 98.2 -0.060 PR ★CR R SR CSR RSR

Track & Field

2021 TF

Temperance Bedford (MI) · Grade 8

Date Meet Event Result Place Rating Difficulty PR/SR Flags
2021-05-06 Bedford JH @ Monroe MS lj 9-00.00 -0.032
2021-05-06 Bedford JH @ Monroe MS 200m 36.45 14th · 12th on team -0.032
2021-05-03 Lincoln MS vs Bedford MS lj 8-10.50 -0.032
2021-05-03 Lincoln MS vs Bedford MS 200m 33.53 11th · 8th on team -0.032
2021-04-29 Dexter MS @ Bedford MS lj 9'10.00 -0.033
2021-04-29 Dexter MS @ Bedford MS 200m 32.38 13th · 9th on team -0.033 ★PR SR

2019 TF 88.9

Temperance Bedford (MI) · Grade 6

Date Meet Event Result Place Rating Difficulty PR/SR Flags
2019-05-13 Lincoln MS @ Bedford MS 100m 16.14 9th · 5th on team -0.033 ★PR SR
2019-05-13 Lincoln MS @ Bedford MS 1600m 7:19.21 9th · 8th on team 92.3 -0.033 ★PR SR RSR
2019-05-13 Lincoln MS @ Bedford MS 800m 3:25.55 12th · 6th on team 89.5 -0.033 ★PR SR
2019-05-06 Ypsilanti MS @ Bedford 200m 36.54 18th · 14th on team -0.033 PR SR
2019-05-06 Ypsilanti MS @ Bedford 800m 3:36.46 12th · 11th on team 84.3 -0.033 PR SR RSR
2019-05-06 Ypsilanti MS @ Bedford 1600m 7:32.04 11th · 11th on team 89.3 -0.033 PR SR RSR